sensor_id;sensor_type;location;lat;lon;timestamp;pressure;altitude;pressure_sealevel;temperature;humidity
59043;BME280;44826;51.596;5.624;2023-08-08T00:01:35;101371.09;;;13.95;79.55
59043;BME280;44826;51.596;5.624;2023-08-08T00:04:00;101366.69;;;13.95;79.59
59043;BME280;44826;51.596;5.624;2023-08-08T00:06:26;101362.44;;;13.93;79.73
59043;BME280;44826;51.596;5.624;2023-08-08T00:08:52;101357.19;;;13.93;79.82
59043;BME280;44826;51.596;5.624;2023-08-08T00:11:17;101361.53;;;13.94;79.71
59043;BME280;44826;51.596;5.624;2023-08-08T00:13:42;101364.16;;;13.94;79.86
59043;BME280;44826;51.596;5.624;2023-08-08T00:16:08;101367.66;;;13.93;80.04
59043;BME280;44826;51.596;5.624;2023-08-08T00:18:33;101368.56;;;13.92;80.47
59043;BME280;44826;51.596;5.624;2023-08-08T00:20:58;101368.56;;;13.92;80.29
59043;BME280;44826;51.596;5.624;2023-08-08T00:23:23;101364.25;;;13.91;80.53
59043;BME280;44826;51.596;5.624;2023-08-08T00:25:49;101363.41;;;13.90;80.31
59043;BME280;44826;51.596;5.624;2023-08-08T00:28:16;101363.41;;;13.90;80.57
59043;BME280;44826;51.596;5.624;2023-08-08T00:30:42;101363.41;;;13.90;80.78
59043;BME280;44826;51.596;5.624;2023-08-08T00:33:07;101358.25;;;13.87;80.73
59043;BME280;44826;51.596;5.624;2023-08-08T00:35:32;101353.94;;;13.86;81.03
59043;BME280;44826;51.596;5.624;2023-08-08T00:37:58;101353.94;;;13.86;80.68
59043;BME280;44826;51.596;5.624;2023-08-08T00:40:23;101347.00;;;13.84;80.89
59043;BME280;44826;51.596;5.624;2023-08-08T00:42:48;101347.06;;;13.82;80.94
59043;BME280;44826;51.596;5.624;2023-08-08T00:45:13;101347.13;;;13.80;81.27
59043;BME280;44826;51.596;5.624;2023-08-08T00:47:39;101347.16;;;13.79;81.34
59043;BME280;44826;51.596;5.624;2023-08-08T00:50:05;101360.25;;;13.79;81.15
59043;BME280;44826;51.596;5.624;2023-08-08T00:52:30;101350.66;;;13.79;81.30
59043;BME280;44826;51.596;5.624;2023-08-08T00:54:56;101345.41;;;13.79;81.13
59043;BME280;44826;51.596;5.624;2023-08-08T00:57:22;101346.25;;;13.80;81.12
59043;BME280;44826;51.596;5.624;2023-08-08T00:59:47;101350.59;;;13.81;81.24
59043;BME280;44826;51.596;5.624;2023-08-08T01:02:13;101354.06;;;13.81;81.32
59043;BME280;44826;51.596;5.624;2023-08-08T01:04:39;101341.91;;;13.80;81.41
59043;BME280;44826;51.596;5.624;2023-08-08T01:07:12;101348.84;;;13.81;81.34
59043;BME280;44826;51.596;5.624;2023-08-08T01:09:48;101345.31;;;13.83;81.30
59043;BME280;44826;51.596;5.624;2023-08-08T01:12:16;101346.22;;;13.81;81.79
59043;BME280;44826;51.596;5.624;2023-08-08T01:14:43;101335.81;;;13.80;81.99
59043;BME280;44826;51.596;5.624;2023-08-08T01:17:08;101342.75;;;13.81;81.62
59043;BME280;44826;51.596;5.624;2023-08-08T01:19:35;101336.69;;;13.80;81.96
59043;BME280;44826;51.596;5.624;2023-08-08T01:22:14;101344.53;;;13.80;81.44
59043;BME280;44826;51.596;5.624;2023-08-08T01:24:45;101346.22;;;13.81;81.88
59043;BME280;44826;51.596;5.624;2023-08-08T01:27:11;101342.81;;;13.79;81.80
59043;BME280;44826;51.596;5.624;2023-08-08T01:29:36;101341.91;;;13.80;82.49
59043;BME280;44826;51.596;5.624;2023-08-08T01:32:02;101329.72;;;13.79;82.84
59043;BME280;44826;51.596;5.624;2023-08-08T01:34:28;101334.97;;;13.79;83.51
59043;BME280;44826;51.596;5.624;2023-08-08T01:37:05;101343.69;;;13.78;83.36
59043;BME280;44826;51.596;5.624;2023-08-08T01:39:32;101344.53;;;13.79;84.16
59043;BME280;44826;51.596;5.624;2023-08-08T01:41:59;101337.59;;;13.78;84.53
59043;BME280;44826;51.596;5.624;2023-08-08T01:44:26;101328.03;;;13.77;84.49
59043;BME280;44826;51.596;5.624;2023-08-08T01:46:54;101338.56;;;13.75;84.80
59043;BME280;44826;51.596;5.624;2023-08-08T01:49:20;101329.88;;;13.75;84.95
59043;BME280;44826;51.596;5.624;2023-08-08T01:51:45;101330.72;;;13.75;84.60
59043;BME280;44826;51.596;5.624;2023-08-08T01:54:11;101331.63;;;13.74;85.28
59043;BME280;44826;51.596;5.624;2023-08-08T01:56:36;101330.78;;;13.74;85.08
59043;BME280;44826;51.596;5.624;2023-08-08T01:59:02;101326.44;;;13.73;85.40
59043;BME280;44826;51.596;5.624;2023-08-08T02:01:27;101322.06;;;13.73;85.80
59043;BME280;44826;51.596;5.624;2023-08-08T02:03:52;101325.56;;;13.72;86.00
59043;BME280;44826;51.596;5.624;2023-08-08T02:06:18;101326.47;;;13.71;86.28
59043;BME280;44826;51.596;5.624;2023-08-08T02:08:44;101321.25;;;13.71;86.08
59043;BME280;44826;51.596;5.624;2023-08-08T02:11:10;101317.88;;;13.68;86.19
59043;BME280;44826;51.596;5.624;2023-08-08T02:13:35;101319.63;;;13.67;86.11
59043;BME280;44826;51.596;5.624;2023-08-08T02:16:00;101315.28;;;13.68;86.77
59043;BME280;44826;51.596;5.624;2023-08-08T02:18:25;101312.72;;;13.66;86.69
59043;BME280;44826;51.596;5.624;2023-08-08T02:20:51;101306.69;;;13.64;87.11
59043;BME280;44826;51.596;5.624;2023-08-08T02:23:16;101308.41;;;13.63;87.13
59043;BME280;44826;51.596;5.624;2023-08-08T02:25:41;101305.88;;;13.62;87.26
59043;BME280;44826;51.596;5.624;2023-08-08T02:28:07;101299.81;;;13.60;87.11
59043;BME280;44826;51.596;5.624;2023-08-08T02:30:32;101307.66;;;13.60;86.92
59043;BME280;44826;51.596;5.624;2023-08-08T02:32:57;101311.13;;;13.60;87.32
59043;BME280;44826;51.596;5.624;2023-08-08T02:35:23;101303.34;;;13.59;87.27
59043;BME280;44826;51.596;5.624;2023-08-08T02:37:48;101305.97;;;13.59;87.27
59043;BME280;44826;51.596;5.624;2023-08-08T02:40:13;101306.84;;;13.58;87.55
59043;BME280;44826;51.596;5.624;2023-08-08T02:42:38;101299.00;;;13.58;87.53
59043;BME280;44826;51.596;5.624;2023-08-08T02:45:04;101295.56;;;13.57;87.61
59043;BME280;44826;51.596;5.624;2023-08-08T02:47:30;101293.78;;;13.58;87.66
59043;BME280;44826;51.596;5.624;2023-08-08T02:49:55;101293.78;;;13.58;87.79
59043;BME280;44826;51.596;5.624;2023-08-08T02:52:20;101283.31;;;13.58;88.22
59043;BME280;44826;51.596;5.624;2023-08-08T02:54:46;101287.75;;;13.56;88.23
59043;BME280;44826;51.596;5.624;2023-08-08T02:57:11;101285.09;;;13.57;88.40
59043;BME280;44826;51.596;5.624;2023-08-08T02:59:37;101280.78;;;13.56;88.31
59043;BME280;44826;51.596;5.624;2023-08-08T03:02:02;101280.78;;;13.56;88.54
59043;BME280;44826;51.596;5.624;2023-08-08T03:04:28;101285.03;;;13.59;88.61
59043;BME280;44826;51.596;5.624;2023-08-08T03:06:54;101278.09;;;13.58;89.09
59043;BME280;44826;51.596;5.624;2023-08-08T03:09:19;101278.09;;;13.58;89.05
59043;BME280;44826;51.596;5.624;2023-08-08T03:11:44;101283.31;;;13.58;89.24
59043;BME280;44826;51.596;5.624;2023-08-08T03:14:10;101277.25;;;13.57;89.31
59043;BME280;44826;51.596;5.624;2023-08-08T03:16:35;101279.00;;;13.57;89.04
59043;BME280;44826;51.596;5.624;2023-08-08T03:19:00;101283.38;;;13.56;89.42
59043;BME280;44826;51.596;5.624;2023-08-08T03:21:25;101289.47;;;13.57;89.41
59043;BME280;44826;51.596;5.624;2023-08-08T03:23:51;101279.06;;;13.55;89.68
59043;BME280;44826;51.596;5.624;2023-08-08T03:26:16;101285.13;;;13.56;89.73
59043;BME280;44826;51.596;5.624;2023-08-08T03:28:41;101287.75;;;13.56;89.97
59043;BME280;44826;51.596;5.624;2023-08-08T03:31:07;101276.47;;;13.54;89.75
59043;BME280;44826;51.596;5.624;2023-08-08T03:33:32;101272.16;;;13.53;90.05
59043;BME280;44826;51.596;5.624;2023-08-08T03:35:57;101271.34;;;13.50;89.64
59043;BME280;44826;51.596;5.624;2023-08-08T03:38:23;101287.03;;;13.50;90.08
59043;BME280;44826;51.596;5.624;2023-08-08T03:40:48;101282.69;;;13.49;89.86
59043;BME280;44826;51.596;5.624;2023-08-08T03:43:13;101289.69;;;13.49;90.33
59043;BME280;44826;51.596;5.624;2023-08-08T03:45:39;101276.69;;;13.47;90.20
59043;BME280;44826;51.596;5.624;2023-08-08T03:48:04;101281.03;;;13.47;90.44
59043;BME280;44826;51.596;5.624;2023-08-08T03:50:29;101269.75;;;13.46;90.87
59043;BME280;44826;51.596;5.624;2023-08-08T03:52:55;101273.25;;;13.45;90.98
59043;BME280;44826;51.596;5.624;2023-08-08T03:55:20;101265.41;;;13.45;91.07
59043;BME280;44826;51.596;5.624;2023-08-08T03:57:46;101268.94;;;13.44;90.92
59043;BME280;44826;51.596;5.624;2023-08-08T04:00:11;101268.06;;;13.44;90.87
59043;BME280;44826;51.596;5.624;2023-08-08T04:02:36;101263.81;;;13.41;91.46
59043;BME280;44826;51.596;5.624;2023-08-08T04:05:02;101261.19;;;13.41;91.37
59043;BME280;44826;51.596;5.624;2023-08-08T04:07:27;101259.47;;;13.40;91.40
59043;BME280;44826;51.596;5.624;2023-08-08T04:09:53;101264.75;;;13.37;91.63
59043;BME280;44826;51.596;5.624;2023-08-08T04:12:18;101258.72;;;13.35;91.76
59043;BME280;44826;51.596;5.624;2023-08-08T04:14:43;101263.13;;;13.33;91.78
59043;BME280;44826;51.596;5.624;2023-08-08T04:17:08;101266.69;;;13.30;91.70
59043;BME280;44826;51.596;5.624;2023-08-08T04:19:34;101258.03;;;13.30;91.82
59043;BME280;44826;51.596;5.624;2023-08-08T04:21:59;101259.81;;;13.28;92.06
59043;BME280;44826;51.596;5.624;2023-08-08T04:24:25;101267.69;;;13.26;92.40
59043;BME280;44826;51.596;5.624;2023-08-08T04:26:50;101256.44;;;13.24;92.68
59043;BME280;44826;51.596;5.624;2023-08-08T04:29:15;101254.78;;;13.21;92.71
59043;BME280;44826;51.596;5.624;2023-08-08T04:31:40;101243.50;;;13.19;92.64
59043;BME280;44826;51.596;5.624;2023-08-08T04:34:06;101254.84;;;13.18;92.71
59043;BME280;44826;51.596;5.624;2023-08-08T04:36:31;101250.53;;;13.17;92.85
59043;BME280;44826;51.596;5.624;2023-08-08T04:38:56;101256.66;;;13.16;93.01
59043;BME280;44826;51.596;5.624;2023-08-08T04:41:21;101261.09;;;13.14;93.06
59043;BME280;44826;51.596;5.624;2023-08-08T04:43:47;101265.50;;;13.12;93.03
59043;BME280;44826;51.596;5.624;2023-08-08T04:46:12;101267.25;;;13.12;93.19
59043;BME280;44826;51.596;5.624;2023-08-08T04:48:38;101271.63;;;13.11;93.18
59043;BME280;44826;51.596;5.624;2023-08-08T04:51:06;101269.06;;;13.10;93.68
59043;BME280;44826;51.596;5.624;2023-08-08T04:53:32;101262.97;;;13.09;93.50
59043;BME280;44826;51.596;5.624;2023-08-08T04:55:57;101262.16;;;13.07;93.66
59043;BME280;44826;51.596;5.624;2023-08-08T04:58:22;101261.28;;;13.06;93.80
59043;BME280;44826;51.596;5.624;2023-08-08T05:00:48;101263.06;;;13.06;93.95
59043;BME280;44826;51.596;5.624;2023-08-08T05:03:13;101261.34;;;13.05;93.78
59043;BME280;44826;51.596;5.624;2023-08-08T05:05:38;101260.47;;;13.06;93.74
59043;BME280;44826;51.596;5.624;2023-08-08T05:08:04;101265.63;;;13.08;94.10
59043;BME280;44826;51.596;5.624;2023-08-08T05:10:29;101258.66;;;13.08;93.94
59043;BME280;44826;51.596;5.624;2023-08-08T05:12:56;101260.38;;;13.09;94.27
59043;BME280;44826;51.596;5.624;2023-08-08T05:15:21;101259.50;;;13.09;93.97
59043;BME280;44826;51.596;5.624;2023-08-08T05:17:47;101262.94;;;13.11;94.08
59043;BME280;44826;51.596;5.624;2023-08-08T05:20:12;101263.75;;;13.13;94.28
59043;BME280;44826;51.596;5.624;2023-08-08T05:22:37;101263.72;;;13.14;94.36
59043;BME280;44826;51.596;5.624;2023-08-08T05:25:03;101260.16;;;13.15;94.07
59043;BME280;44826;51.596;5.624;2023-08-08T05:27:28;101258.38;;;13.17;94.32
59043;BME280;44826;51.596;5.624;2023-08-08T05:29:54;101258.38;;;13.17;94.46
59043;BME280;44826;51.596;5.624;2023-08-08T05:32:19;101261.78;;;13.21;94.07
59043;BME280;44826;51.596;5.624;2023-08-08T05:34:44;101251.25;;;13.23;93.98
59043;BME280;44826;51.596;5.624;2023-08-08T05:37:09;101253.03;;;13.22;94.03
59043;BME280;44826;51.596;5.624;2023-08-08T05:39:35;101260.81;;;13.24;94.30
59043;BME280;44826;51.596;5.624;2023-08-08T05:42:00;101262.44;;;13.28;94.47
59043;BME280;44826;51.596;5.624;2023-08-08T05:44:25;101266.69;;;13.32;94.46
59043;BME280;44826;51.596;5.624;2023-08-08T05:46:51;101263.91;;;13.36;94.39
59043;BME280;44826;51.596;5.624;2023-08-08T05:49:17;101269.06;;;13.40;94.46
59043;BME280;44826;51.596;5.624;2023-08-08T05:51:42;101270.69;;;13.44;93.68
59043;BME280;44826;51.596;5.624;2023-08-08T05:54:07;101269.69;;;13.48;93.53
59043;BME280;44826;51.596;5.624;2023-08-08T05:56:36;101270.44;;;13.51;93.92
59043;BME280;44826;51.596;5.624;2023-08-08T05:59:04;101266.84;;;13.56;91.47
59043;BME280;44826;51.596;5.624;2023-08-08T06:01:30;101270.25;;;13.58;93.04
59043;BME280;44826;51.596;5.624;2023-08-08T06:03:56;101266.69;;;13.60;93.28
59043;BME280;44826;51.596;5.624;2023-08-08T06:06:24;101270.91;;;13.64;93.36
59043;BME280;44826;51.596;5.624;2023-08-08T06:08:49;101269.94;;;13.67;93.42
59043;BME280;44826;51.596;5.624;2023-08-08T06:11:14;101268.13;;;13.71;93.55
59043;BME280;44826;51.596;5.624;2023-08-08T06:13:40;101265.34;;;13.75;93.43
59043;BME280;44826;51.596;5.624;2023-08-08T06:16:05;101273.03;;;13.80;93.51
59043;BME280;44826;51.596;5.624;2023-08-08T06:18:32;101280.84;;;13.81;93.23
59043;BME280;44826;51.596;5.624;2023-08-08T06:20:58;101278.16;;;13.83;92.72
59043;BME280;44826;51.596;5.624;2023-08-08T06:23:23;101280.63;;;13.88;93.28
59043;BME280;44826;51.596;5.624;2023-08-08T06:25:48;101279.63;;;13.92;93.51
59043;BME280;44826;51.596;5.624;2023-08-08T06:28:14;101281.16;;;13.99;93.39
59043;BME280;44826;51.596;5.624;2023-08-08T06:30:39;101287.88;;;14.06;92.56
59043;BME280;44826;51.596;5.624;2023-08-08T06:33:04;101283.28;;;14.13;92.67
59043;BME280;44826;51.596;5.624;2023-08-08T06:35:30;101288.34;;;14.18;92.07
59043;BME280;44826;51.596;5.624;2023-08-08T06:37:55;101289.13;;;14.21;91.88
59043;BME280;44826;51.596;5.624;2023-08-08T06:40:20;101295.00;;;14.28;92.21
59043;BME280;44826;51.596;5.624;2023-08-08T06:42:46;101286.16;;;14.32;91.74
59043;BME280;44826;51.596;5.624;2023-08-08T06:45:12;101288.63;;;14.35;90.82
59043;BME280;44826;51.596;5.624;2023-08-08T06:47:37;101290.34;;;14.36;90.45
59043;BME280;44826;51.596;5.624;2023-08-08T06:50:02;101293.78;;;14.38;91.03
59043;BME280;44826;51.596;5.624;2023-08-08T06:52:28;101291.94;;;14.42;91.33
59043;BME280;44826;51.596;5.624;2023-08-08T06:54:54;101284.81;;;14.46;91.24
59043;BME280;44826;51.596;5.624;2023-08-08T06:57:19;101288.13;;;14.51;90.74
59043;BME280;44826;51.596;5.624;2023-08-08T06:59:44;101295.84;;;14.54;90.22
59043;BME280;44826;51.596;5.624;2023-08-08T07:02:11;101292.31;;;14.56;90.08
59043;BME280;44826;51.596;5.624;2023-08-08T07:04:36;101299.06;;;14.62;90.90
59043;BME280;44826;51.596;5.624;2023-08-08T07:07:02;101300.72;;;14.65;89.53
59043;BME280;44826;51.596;5.624;2023-08-08T07:09:27;101297.25;;;14.64;89.41
59043;BME280;44826;51.596;5.624;2023-08-08T07:11:53;101294.56;;;14.66;89.07
59043;BME280;44826;51.596;5.624;2023-08-08T07:14:19;101291.13;;;14.65;88.85
59043;BME280;44826;51.596;5.624;2023-08-08T07:16:44;101290.97;;;14.70;89.20
59043;BME280;44826;51.596;5.624;2023-08-08T07:19:09;101284.66;;;14.76;88.65
59043;BME280;44826;51.596;5.624;2023-08-08T07:21:36;101284.56;;;14.79;88.59
59043;BME280;44826;51.596;5.624;2023-08-08T07:24:02;101286.16;;;14.83;89.01
59043;BME280;44826;51.596;5.624;2023-08-08T07:26:28;101297.25;;;14.90;88.12
59043;BME280;44826;51.596;5.624;2023-08-08T07:28:53;101294.41;;;14.96;88.85
59043;BME280;44826;51.596;5.624;2023-08-08T07:31:18;101289.81;;;15.02;88.57
59043;BME280;44826;51.596;5.624;2023-08-08T07:33:43;101286.16;;;15.07;86.79
59043;BME280;44826;51.596;5.624;2023-08-08T07:36:09;101286.84;;;15.12;86.13
59043;BME280;44826;51.596;5.624;2023-08-08T07:38:34;101283.19;;;15.16;85.56
59043;BME280;44826;51.596;5.624;2023-08-08T07:40:59;101277.69;;;15.22;85.61
59043;BME280;44826;51.596;5.624;2023-08-08T07:43:24;101284.44;;;15.29;85.51
59043;BME280;44826;51.596;5.624;2023-08-08T07:45:50;101288.38;;;15.40;86.45
59043;BME280;44826;51.596;5.624;2023-08-08T07:48:15;101276.75;;;15.47;84.27
59043;BME280;44826;51.596;5.624;2023-08-08T07:50:40;101286.25;;;15.50;83.82
59043;BME280;44826;51.596;5.624;2023-08-08T07:53:06;101275.53;;;15.56;84.14
59043;BME280;44826;51.596;5.624;2023-08-08T07:55:31;101281.38;;;15.62;82.90
59043;BME280;44826;51.596;5.624;2023-08-08T07:57:56;101281.88;;;15.72;82.70
59043;BME280;44826;51.596;5.624;2023-08-08T08:00:21;101271.97;;;15.79;81.27
59043;BME280;44826;51.596;5.624;2023-08-08T08:02:47;101278.72;;;15.86;80.99
59043;BME280;44826;51.596;5.624;2023-08-08T08:05:13;101274.91;;;15.93;80.46
59043;BME280;44826;51.596;5.624;2023-08-08T08:07:39;101278.22;;;15.99;80.81
59043;BME280;44826;51.596;5.624;2023-08-08T08:10:06;101284.19;;;16.02;78.79
59043;BME280;44826;51.596;5.624;2023-08-08T08:12:32;101277.91;;;16.06;78.94
59043;BME280;44826;51.596;5.624;2023-08-08T08:14:58;101275.94;;;16.12;78.46
59043;BME280;44826;51.596;5.624;2023-08-08T08:17:23;101282.63;;;16.19;78.28
59043;BME280;44826;51.596;5.624;2023-08-08T08:19:51;101275.50;;;16.22;77.60
59043;BME280;44826;51.596;5.624;2023-08-08T08:22:17;101284.88;;;16.28;77.30
59043;BME280;44826;51.596;5.624;2023-08-08T08:24:42;101277.78;;;16.30;77.72
59043;BME280;44826;51.596;5.624;2023-08-08T08:27:07;101278.63;;;16.31;76.21
59043;BME280;44826;51.596;5.624;2023-08-08T08:29:33;101282.03;;;16.33;75.38
59043;BME280;44826;51.596;5.624;2023-08-08T08:31:59;101287.50;;;16.28;74.68
59043;BME280;44826;51.596;5.624;2023-08-08T08:34:24;101282.28;;;16.27;74.57
59043;BME280;44826;51.596;5.624;2023-08-08T08:36:49;101289.25;;;16.28;76.10
59043;BME280;44826;51.596;5.624;2023-08-08T08:39:14;101278.63;;;16.31;73.44
59043;BME280;44826;51.596;5.624;2023-08-08T08:41:40;101276.91;;;16.30;73.75
59043;BME280;44826;51.596;5.624;2023-08-08T08:44:05;101279.47;;;16.31;74.40
59043;BME280;44826;51.596;5.624;2023-08-08T08:46:32;101270.66;;;16.32;74.64
59043;BME280;44826;51.596;5.624;2023-08-08T08:49:01;101278.50;;;16.34;75.19
59043;BME280;44826;51.596;5.624;2023-08-08T08:51:27;101280.78;;;16.42;75.24
59043;BME280;44826;51.596;5.624;2023-08-08T08:53:53;101275.28;;;16.48;73.99
59043;BME280;44826;51.596;5.624;2023-08-08T08:56:18;101278.53;;;16.53;73.88
59043;BME280;44826;51.596;5.624;2023-08-08T08:58:43;101277.69;;;16.52;71.48
59043;BME280;44826;51.596;5.624;2023-08-08T09:01:09;101286.50;;;16.51;72.12
59043;BME280;44826;51.596;5.624;2023-08-08T09:03:36;101282.97;;;16.52;72.31
59043;BME280;44826;51.596;5.624;2023-08-08T09:06:02;101283.66;;;16.56;72.89
59043;BME280;44826;51.596;5.624;2023-08-08T09:08:28;101280.81;;;16.61;73.46
59043;BME280;44826;51.596;5.624;2023-08-08T09:10:54;101289.38;;;16.66;71.97
59043;BME280;44826;51.596;5.624;2023-08-08T09:13:21;101285.81;;;16.67;72.54
59043;BME280;44826;51.596;5.624;2023-08-08T09:15:48;101283.97;;;16.69;72.12
59043;BME280;44826;51.596;5.624;2023-08-08T09:18:14;101280.44;;;16.70;72.57
59043;BME280;44826;51.596;5.624;2023-08-08T09:20:39;101284.56;;;16.76;73.47
59043;BME280;44826;51.596;5.624;2023-08-08T09:23:05;101288.56;;;16.84;72.96
59043;BME280;44826;51.596;5.624;2023-08-08T09:25:30;101291.06;;;16.88;72.29
59043;BME280;44826;51.596;5.624;2023-08-08T09:27:56;101286.56;;;16.90;73.02
59043;BME280;44826;51.596;5.624;2023-08-08T09:33:00;101295.66;;;16.82;71.45
59043;BME280;44826;51.596;5.624;2023-08-08T09:35:28;101292.22;;;16.80;71.72
59043;BME280;44826;51.596;5.624;2023-08-08T09:37:54;101288.81;;;16.78;72.36
59043;BME280;44826;51.596;5.624;2023-08-08T09:40:19;101297.34;;;16.83;72.23
59043;BME280;44826;51.596;5.624;2023-08-08T09:42:47;101295.38;;;16.89;71.58
59043;BME280;44826;51.596;5.624;2023-08-08T09:45:14;101294.19;;;16.96;71.80
59043;BME280;44826;51.596;5.624;2023-08-08T09:47:39;101298.53;;;16.97;70.09
59043;BME280;44826;51.596;5.624;2023-08-08T09:50:05;101306.50;;;16.95;69.78
59043;BME280;44826;51.596;5.624;2023-08-08T09:52:33;101302.34;;;16.90;70.72
59043;BME280;44826;51.596;5.624;2023-08-08T09:54:59;101307.53;;;16.91;70.80
59043;BME280;44826;51.596;5.624;2023-08-08T09:57:25;101326.66;;;16.95;70.24
59043;BME280;44826;51.596;5.624;2023-08-08T09:59:51;101310.03;;;16.94;70.27
59043;BME280;44826;51.596;5.624;2023-08-08T10:02:17;101308.25;;;16.95;69.49
59043;BME280;44826;51.596;5.624;2023-08-08T10:04:45;101300.47;;;16.92;69.26
59043;BME280;44826;51.596;5.624;2023-08-08T10:07:10;101294.38;;;16.91;69.79
59043;BME280;44826;51.596;5.624;2023-08-08T10:09:35;101293.47;;;16.92;69.17
59043;BME280;44826;51.596;5.624;2023-08-08T10:12:04;101294.16;;;16.97;68.53
59043;BME280;44826;51.596;5.624;2023-08-08T10:14:31;101293.00;;;17.03;68.74
59043;BME280;44826;51.596;5.624;2023-08-08T10:16:56;101303.16;;;17.11;67.38
59043;BME280;44826;51.596;5.624;2023-08-08T10:19:23;101298.47;;;17.18;66.72
59043;BME280;44826;51.596;5.624;2023-08-08T10:21:56;101302.38;;;17.28;66.55
59043;BME280;44826;51.596;5.624;2023-08-08T10:24:21;101292.41;;;17.35;66.09
59043;BME280;44826;51.596;5.624;2023-08-08T10:26:56;101304.28;;;17.43;67.21
59043;BME280;44826;51.596;5.624;2023-08-08T10:29:24;101304.09;;;17.48;66.79
59043;BME280;44826;51.596;5.624;2023-08-08T10:32:01;101299.81;;;17.45;67.88
59043;BME280;44826;51.596;5.624;2023-08-08T10:34:43;101304.38;;;17.42;66.43
59043;BME280;44826;51.596;5.624;2023-08-08T10:37:13;101308.06;;;17.38;66.39
59043;BME280;44826;51.596;5.624;2023-08-08T10:39:57;101300.25;;;17.36;66.99
59043;BME280;44826;51.596;5.624;2023-08-08T10:42:24;101302.78;;;17.38;67.07
59043;BME280;44826;51.596;5.624;2023-08-08T10:45:01;101297.31;;;17.42;66.24
59043;BME280;44826;51.596;5.624;2023-08-08T10:47:35;101312.81;;;17.49;66.58
59043;BME280;44826;51.596;5.624;2023-08-08T10:57:58;101297.00;;;17.68;64.71
59043;BME280;44826;51.596;5.624;2023-08-08T11:00:28;101296.94;;;17.69;64.81
59043;BME280;44826;51.596;5.624;2023-08-08T11:02:54;101302.06;;;17.72;63.65
59043;BME280;44826;51.596;5.624;2023-08-08T11:05:21;101297.47;;;17.76;64.27
59043;BME280;44826;51.596;5.624;2023-08-08T11:07:47;101294.63;;;17.81;64.23
59043;BME280;44826;51.596;5.624;2023-08-08T11:10:13;101290.81;;;17.86;64.37
59043;BME280;44826;51.596;5.624;2023-08-08T11:12:38;101288.19;;;17.86;64.78
59043;BME280;44826;51.596;5.624;2023-08-08T11:15:03;101291.06;;;17.82;64.55
59043;BME280;44826;51.596;5.624;2023-08-08T11:17:30;101282.38;;;17.80;64.72
59043;BME280;44826;51.596;5.624;2023-08-08T11:19:55;101293.84;;;17.79;62.87
59043;BME280;44826;51.596;5.624;2023-08-08T11:22:21;101281.53;;;17.79;62.57
59043;BME280;44826;51.596;5.624;2023-08-08T11:24:48;101278.22;;;17.75;63.46
59043;BME280;44826;51.596;5.624;2023-08-08T11:27:15;101278.22;;;17.75;63.81
59043;BME280;44826;51.596;5.624;2023-08-08T11:29:40;101278.03;;;17.79;63.83
59043;BME280;44826;51.596;5.624;2023-08-08T11:32:06;101280.38;;;17.85;64.13
59043;BME280;44826;51.596;5.624;2023-08-08T11:34:32;101273.13;;;17.90;64.67
59043;BME280;44826;51.596;5.624;2023-08-08T11:36:59;101261.44;;;17.96;64.58
59043;BME280;44826;51.596;5.624;2023-08-08T11:39:26;101278.06;;;17.96;65.13
59043;BME280;44826;51.596;5.624;2023-08-08T11:41:52;101281.94;;;17.89;64.59
59043;BME280;44826;51.596;5.624;2023-08-08T11:44:17;101282.31;;;17.81;65.72
59043;BME280;44826;51.596;5.624;2023-08-08T11:46:44;101276.34;;;17.78;64.99
59043;BME280;44826;51.596;5.624;2023-08-08T11:49:11;101277.25;;;17.77;64.27
59043;BME280;44826;51.596;5.624;2023-08-08T11:51:38;101274.44;;;17.81;64.20
59043;BME280;44826;51.596;5.624;2023-08-08T11:54:03;101274.84;;;17.91;64.57
59043;BME280;44826;51.596;5.624;2023-08-08T11:56:29;101266.59;;;17.99;64.02
59043;BME280;44826;51.596;5.624;2023-08-08T11:58:59;101285.78;;;18.01;63.46
59043;BME280;44826;51.596;5.624;2023-08-08T12:01:25;101289.69;;;17.92;62.85
59043;BME280;44826;51.596;5.624;2023-08-08T12:03:51;101305.69;;;17.87;62.60
59043;BME280;44826;51.596;5.624;2023-08-08T12:06:17;101289.13;;;17.85;62.97
59043;BME280;44826;51.596;5.624;2023-08-08T12:08:43;101282.94;;;17.86;62.33
59043;BME280;44826;51.596;5.624;2023-08-08T12:11:11;101285.66;;;17.85;63.62
59043;BME280;44826;51.596;5.624;2023-08-08T12:13:43;101282.38;;;17.80;63.18
59043;BME280;44826;51.596;5.624;2023-08-08T12:16:10;101282.38;;;17.80;64.75
59043;BME280;44826;51.596;5.624;2023-08-08T12:18:37;101282.38;;;17.80;63.89
59043;BME280;44826;51.596;5.624;2023-08-08T12:21:04;101278.00;;;17.80;64.26
59043;BME280;44826;51.596;5.624;2023-08-08T12:23:29;101279.69;;;17.81;64.04
59043;BME280;44826;51.596;5.624;2023-08-08T12:25:55;101284.72;;;17.86;64.28
59043;BME280;44826;51.596;5.624;2023-08-08T12:28:21;101295.09;;;17.89;62.48
59043;BME280;44826;51.596;5.624;2023-08-08T12:30:47;101273.28;;;17.87;61.29
59043;BME280;44826;51.596;5.624;2023-08-08T12:33:12;101278.69;;;17.84;61.09
59043;BME280;44826;51.596;5.624;2023-08-08T12:35:37;101276.97;;;17.83;62.19
59043;BME280;44826;51.596;5.624;2023-08-08T12:38:02;101284.72;;;17.86;62.08
59043;BME280;44826;51.596;5.624;2023-08-08T12:40:28;101267.84;;;17.90;60.64
59043;BME280;44826;51.596;5.624;2023-08-08T12:42:54;101279.78;;;17.97;61.75
59043;BME280;44826;51.596;5.624;2023-08-08T12:45:19;101255.81;;;18.03;61.29
59043;BME280;44826;51.596;5.624;2023-08-08T12:47:44;101262.38;;;18.12;59.11
59043;BME280;44826;51.596;5.624;2023-08-08T12:50:10;101260.75;;;18.27;57.98
59043;BME280;44826;51.596;5.624;2023-08-08T12:52:35;101258.41;;;18.39;57.10
59043;BME280;44826;51.596;5.624;2023-08-08T12:55:01;101259.47;;;18.52;57.54